createdAt,value
2023-03-18T00:01:07.485Z,100739.94
2023-03-18T00:05:11.024Z,100753.06
2023-03-18T00:09:13.860Z,100760.53
2023-03-18T00:13:15.269Z,100766.28
2023-03-18T00:17:17.196Z,100759.59
2023-03-18T00:21:18.973Z,100760.13
2023-03-18T00:25:20.486Z,100755.47
2023-03-18T00:29:23.555Z,100756.22
2023-03-18T00:33:24.970Z,100760.44
2023-03-18T00:37:34.707Z,100740.78
2023-03-18T00:41:38.813Z,100750.09
2023-03-18T00:45:41.066Z,100746.00
2023-03-18T00:49:42.641Z,100742.47
2023-03-18T00:53:46.501Z,100733.53
2023-03-18T00:57:47.993Z,100728.72
2023-03-18T01:01:49.620Z,100727.97
2023-03-18T01:05:51.634Z,100715.81
2023-03-18T01:09:54.697Z,100726.31
2023-03-18T01:13:56.243Z,100714.66
2023-03-18T01:17:58.353Z,100716.47
2023-03-18T01:22:01.850Z,100714.25
2023-03-18T01:26:05.346Z,100701.59
2023-03-18T01:30:09.607Z,100705.59
2023-03-18T01:34:11.054Z,100700.69
2023-03-18T01:38:22.549Z,100696.94
2023-03-18T01:42:24.590Z,100702.47
2023-03-18T01:46:31.069Z,100703.69
2023-03-18T01:50:37.875Z,100708.91
2023-03-18T01:54:45.197Z,100710.25
2023-03-18T01:58:51.133Z,100721.03
2023-03-18T02:02:54.508Z,100720.25
2023-03-18T02:06:59.002Z,100730.63
2023-03-18T02:11:01.581Z,100749.50
2023-03-18T02:15:07.182Z,100755.88
2023-03-18T02:19:33.469Z,100753.63
2023-03-18T02:23:49.042Z,100750.38
2023-03-18T02:27:59.131Z,100758.19
2023-03-18T02:32:05.971Z,100755.56
2023-03-18T02:36:29.866Z,100750.97
2023-03-18T02:40:37.560Z,100752.63
2023-03-18T02:44:46.939Z,100762.00
2023-03-18T02:49:17.033Z,100765.06
2023-03-18T02:53:18.569Z,100763.50
2023-03-18T02:57:20.104Z,100764.09
2023-03-18T03:01:22.647Z,100758.22
2023-03-18T03:05:24.192Z,100763.50
2023-03-18T03:09:26.464Z,100772.34
2023-03-18T03:13:28.169Z,100763.31
2023-03-18T03:17:29.900Z,100759.03
2023-03-18T03:21:33.430Z,100756.06
2023-03-18T03:25:35.425Z,100748.50
2023-03-18T03:29:37.194Z,100735.00
2023-03-18T03:33:41.650Z,100741.53
2023-03-18T03:37:43.833Z,100753.28
2023-03-18T03:41:45.584Z,100751.75
2023-03-18T03:45:50.689Z,100742.50
2023-03-18T03:49:52.407Z,100743.03
2023-03-18T03:53:54.099Z,100745.28
2023-03-18T03:57:56.450Z,100746.97
2023-03-18T04:01:58.452Z,100730.00
2023-03-18T04:06:00.592Z,100736.25
2023-03-18T04:10:05.949Z,100734.53
2023-03-18T04:14:08.077Z,100724.34
2023-03-18T04:18:09.728Z,100728.53
2023-03-18T04:22:12.856Z,100734.56
2023-03-18T04:26:14.382Z,100740.03
2023-03-18T04:30:16.030Z,100738.13
2023-03-18T04:34:29.662Z,100730.53
2023-03-18T04:38:31.460Z,100728.06
2023-03-18T04:42:33.081Z,100736.78
2023-03-18T04:46:35.273Z,100723.22
2023-03-18T04:50:37.025Z,100734.31
2023-03-18T04:54:42.720Z,100728.91
2023-03-18T04:58:44.395Z,100725.75
2023-03-18T05:02:51.502Z,100721.81
2023-03-18T05:06:56.224Z,100716.06
2023-03-18T05:11:05.128Z,100720.88
2023-03-18T05:15:11.869Z,100722.25
2023-03-18T05:19:18.029Z,100731.75
2023-03-18T05:23:28.672Z,100733.28
2023-03-18T05:27:31.430Z,100739.78
2023-03-18T05:31:40.461Z,100744.41
2023-03-18T05:35:42.307Z,100746.50
2023-03-18T05:39:45.322Z,100745.06
2023-03-18T05:43:49.743Z,100745.63
2023-03-18T05:47:51.726Z,100738.38
2023-03-18T05:51:55.193Z,100735.25
2023-03-18T05:56:08.567Z,100743.03
2023-03-18T06:00:10.845Z,100744.31
2023-03-18T06:04:21.139Z,100742.88
2023-03-18T06:08:23.551Z,100751.75
2023-03-18T06:12:27.349Z,100751.72
2023-03-18T06:16:29.223Z,100753.69
2023-03-18T06:20:31.419Z,100758.06
2023-03-18T06:24:33.139Z,100763.75
2023-03-18T06:28:35.530Z,100767.63
2023-03-18T06:32:42.040Z,100767.53
2023-03-18T06:36:43.669Z,100768.91
2023-03-18T06:40:51.254Z,100772.53
2023-03-18T06:44:53.149Z,100775.56
2023-03-18T06:49:00.325Z,100773.00
2023-03-18T06:53:07.933Z,100778.75
2023-03-18T06:57:09.496Z,100783.34
2023-03-18T07:01:12.402Z,100784.06
2023-03-18T07:05:17.134Z,100786.03
2023-03-18T07:09:19.767Z,100783.09
2023-03-18T07:13:26.983Z,100797.38
2023-03-18T07:17:29.451Z,100800.56
2023-03-18T07:21:31.795Z,100813.44
2023-03-18T07:25:33.746Z,100822.31
2023-03-18T07:29:35.479Z,100806.03
2023-03-18T07:33:36.920Z,100816.75
2023-03-18T07:37:40.187Z,100835.06
2023-03-18T07:41:41.645Z,100836.03
2023-03-18T07:45:43.580Z,100822.50
2023-03-18T07:49:45.075Z,100827.47
2023-03-18T07:53:47.528Z,100834.31
2023-03-18T07:57:49.144Z,100840.84
2023-03-18T08:01:50.556Z,100835.50
2023-03-18T08:05:52.446Z,100834.22
2023-03-18T08:09:53.922Z,100835.59
2023-03-18T08:13:55.693Z,100845.88
2023-03-18T08:17:57.461Z,100845.56
2023-03-18T08:21:59.406Z,100848.88
2023-03-18T08:26:01.002Z,100838.63
2023-03-18T08:30:03.957Z,100830.84
2023-03-18T08:34:05.713Z,100831.16
2023-03-18T08:38:07.207Z,100834.03
2023-03-18T08:42:08.922Z,100830.81
2023-03-18T08:46:10.634Z,100836.28
2023-03-18T08:50:13.574Z,100834.28
2023-03-18T08:54:15.031Z,100849.59
2023-03-18T08:58:17.277Z,100849.38
2023-03-18T09:02:18.731Z,100841.16
2023-03-18T09:06:20.992Z,100847.66
2023-03-18T09:10:22.682Z,100836.75
2023-03-18T09:14:24.125Z,100842.69
2023-03-18T09:18:26.044Z,100856.19
2023-03-18T09:22:27.613Z,100866.41
2023-03-18T09:26:29.046Z,100867.91
2023-03-18T09:30:31.877Z,100874.22
2023-03-18T09:34:33.332Z,100869.63
2023-03-18T09:38:35.229Z,100870.09
2023-03-18T09:42:59.441Z,100874.50
2023-03-18T09:47:22.664Z,100877.72
2023-03-18T09:51:54.560Z,100874.47
2023-03-18T09:55:57.610Z,100882.97
2023-03-18T10:00:09.098Z,100886.22
2023-03-18T10:04:24.024Z,100875.13
2023-03-18T10:08:41.909Z,100888.06
2023-03-18T10:12:50.751Z,100877.81
2023-03-18T10:17:01.276Z,100879.16
2023-03-18T10:21:06.952Z,100887.22
2023-03-18T10:25:29.898Z,100880.75
2023-03-18T10:29:46.980Z,100884.38
2023-03-18T10:33:57.069Z,100891.25
2023-03-18T10:38:21.811Z,100891.13
2023-03-18T10:42:27.002Z,100897.47
2023-03-18T10:46:29.202Z,100906.81
2023-03-18T10:50:36.711Z,100915.00
2023-03-18T10:54:46.589Z,100915.09
2023-03-18T10:58:49.101Z,100915.16
2023-03-18T11:02:50.887Z,100918.50
2023-03-18T11:07:01.584Z,100923.59
2023-03-18T11:11:27.619Z,100918.16
2023-03-18T11:15:35.900Z,100912.69
2023-03-18T11:19:41.150Z,100927.16
2023-03-18T11:24:21.472Z,100915.53
2023-03-18T11:28:28.052Z,100919.78
2023-03-18T11:32:32.171Z,100915.13
2023-03-18T11:36:33.938Z,100915.72
2023-03-18T11:40:40.110Z,100910.16
2023-03-18T11:44:41.927Z,100916.34
2023-03-18T11:48:44.339Z,100903.75
2023-03-18T11:53:02.348Z,100907.44
2023-03-18T11:57:22.115Z,100927.25
2023-03-18T12:01:58.855Z,100923.06
2023-03-18T12:06:09.542Z,100925.88
2023-03-18T12:10:20.320Z,100930.06
2023-03-18T12:14:41.198Z,100937.31
2023-03-18T12:19:10.451Z,100940.81
2023-03-18T12:23:44.231Z,100939.19
2023-03-18T12:28:17.934Z,100951.09
2023-03-18T12:32:27.180Z,100955.09
2023-03-18T12:36:59.929Z,100967.41
2023-03-18T12:41:31.794Z,100962.28
2023-03-18T12:45:39.662Z,100969.91
2023-03-18T12:50:02.177Z,100968.19
2023-03-18T12:54:18.081Z,100970.13
2023-03-18T12:58:24.246Z,100974.91
2023-03-18T13:02:39.991Z,100972.63
2023-03-18T13:07:05.591Z,100984.59
2023-03-18T14:02:45.466Z,100998.13
2023-03-18T14:06:57.587Z,100991.53
2023-03-18T14:11:17.141Z,100997.59
2023-03-18T14:15:37.246Z,101004.59
2023-03-18T14:19:40.850Z,101007.28
2023-03-18T14:23:44.732Z,101001.31
2023-03-18T14:28:00.006Z,100999.38
2023-03-18T14:32:08.309Z,100999.44
2023-03-18T14:36:10.672Z,101007.28
2023-03-18T14:40:19.855Z,101005.97
2023-03-18T14:44:44.883Z,101017.22
2023-03-18T14:48:53.879Z,101010.91
2023-03-18T14:53:02.760Z,101017.84
2023-03-18T14:57:05.757Z,101025.91
2023-03-18T15:01:12.851Z,101025.47
2023-03-18T15:05:19.160Z,101021.31
2023-03-18T15:09:29.877Z,101018.63
2023-03-18T15:13:32.572Z,101017.88
2023-03-18T15:17:34.124Z,101031.66
2023-03-18T15:21:37.772Z,101030.06
2023-03-18T15:25:44.004Z,101030.41
2023-03-18T15:30:07.263Z,101027.13
2023-03-18T15:34:18.445Z,101038.94
2023-03-18T15:38:21.314Z,101029.19
2023-03-18T15:42:24.745Z,101042.06
2023-03-18T15:46:30.937Z,101041.84
2023-03-18T15:50:34.332Z,101043.34
2023-03-18T15:54:40.704Z,101035.81
2023-03-18T15:58:44.676Z,101041.31
2023-03-18T16:02:49.096Z,101038.50
2023-03-18T16:06:52.444Z,101051.50
2023-03-18T16:11:00.630Z,101050.22
2023-03-18T16:15:04.993Z,101061.50
2023-03-18T16:19:14.951Z,101061.22
2023-03-18T16:23:17.613Z,101067.72
2023-03-18T16:27:37.410Z,101072.25
2023-03-18T16:31:38.885Z,101084.53
2023-03-18T16:35:40.867Z,101083.56
2023-03-18T16:39:46.942Z,101086.50
2023-03-18T16:43:54.750Z,101089.41
2023-03-18T16:48:03.822Z,101080.03
2023-03-18T16:52:06.635Z,101080.78
2023-03-18T16:56:24.496Z,101088.44
2023-03-18T17:00:38.264Z,101097.78
2023-03-18T17:04:48.615Z,101099.03
2023-03-18T17:08:52.503Z,101099.66
2023-03-18T17:13:07.526Z,101102.81
2023-03-18T17:17:23.247Z,101113.69
2023-03-18T17:21:29.435Z,101112.06
2023-03-18T17:25:32.607Z,101118.72
2023-03-18T17:29:34.251Z,101117.59
2023-03-18T17:33:46.054Z,101130.16
2023-03-18T17:37:56.366Z,101125.81
2023-03-18T17:42:04.473Z,101133.19
2023-03-18T17:46:33.578Z,101144.03
2023-03-18T17:51:05.875Z,101140.19
2023-03-18T17:55:16.304Z,101147.22
2023-03-18T17:59:20.036Z,101147.66
2023-03-18T18:03:27.501Z,101150.06
2023-03-18T18:12:09.429Z,101153.22
2023-03-18T18:16:35.224Z,101155.00
2023-03-18T18:20:53.591Z,101158.50
2023-03-18T18:25:10.619Z,101153.59
2023-03-18T18:29:36.723Z,101156.16
2023-03-18T18:34:00.354Z,101145.50
2023-03-18T18:42:35.192Z,101152.75
2023-03-18T18:46:36.960Z,101157.25
2023-03-18T18:50:39.892Z,101158.75
2023-03-18T18:54:41.791Z,101160.22
2023-03-18T18:58:43.404Z,101162.97
2023-03-18T19:02:46.958Z,101165.13
2023-03-18T19:06:52.375Z,101161.72
2023-03-18T19:10:56.558Z,101161.66
2023-03-18T19:14:58.209Z,101168.75
2023-03-18T19:19:00.395Z,101157.53
2023-03-18T19:23:03.019Z,101160.13
2023-03-18T19:27:11.780Z,101163.19
2023-03-18T19:31:18.920Z,101151.84
2023-03-18T19:35:20.445Z,101160.81
2023-03-18T19:39:22.649Z,101165.63
2023-03-18T19:43:24.369Z,101173.38
2023-03-18T19:47:29.162Z,101178.53
2023-03-18T19:51:31.163Z,101188.16
2023-03-18T19:55:33.006Z,101183.66
2023-03-18T19:59:39.278Z,101183.28
2023-03-18T20:03:41.538Z,101187.16
2023-03-18T20:07:43.468Z,101194.19
2023-03-18T20:11:46.669Z,101193.75
2023-03-18T20:15:48.980Z,101196.38
2023-03-18T20:19:50.807Z,101207.84
2023-03-18T20:28:27.148Z,101202.00
2023-03-18T20:41:41.703Z,101214.63
2023-03-18T20:45:56.938Z,101220.66
2023-03-18T20:50:02.273Z,101215.81
2023-03-18T20:54:28.817Z,101226.47
2023-03-18T20:58:50.725Z,101234.47
2023-03-18T21:02:58.118Z,101231.75
2023-03-18T21:07:05.474Z,101229.34
2023-03-18T21:11:21.069Z,101227.69
2023-03-18T21:15:25.955Z,101225.03
2023-03-18T21:19:51.247Z,101224.69
2023-03-18T21:23:55.040Z,101219.72
2023-03-18T21:28:01.667Z,101231.66
2023-03-18T21:32:05.398Z,101231.78
2023-03-18T21:36:11.615Z,101228.75
2023-03-18T21:40:16.475Z,101228.53
2023-03-18T21:44:20.366Z,101232.38
2023-03-18T21:48:22.727Z,101235.69
2023-03-18T21:52:41.179Z,101240.31
2023-03-18T21:57:37.694Z,101238.75
2023-03-18T22:02:18.113Z,101228.13
2023-03-18T22:06:35.204Z,101238.91
2023-03-18T22:10:36.851Z,101242.59
2023-03-18T22:14:39.545Z,101243.81
2023-03-18T22:18:44.146Z,101242.31
2023-03-18T22:22:47.308Z,101243.19
2023-03-18T22:26:48.817Z,101247.03
2023-03-18T22:31:10.700Z,101244.47
2023-03-18T22:35:14.583Z,101234.78
2023-03-18T22:39:16.812Z,101231.25
2023-03-18T22:43:24.893Z,101218.13
2023-03-18T22:47:27.257Z,101219.13
2023-03-18T22:51:33.049Z,101227.00
2023-03-18T22:55:48.105Z,101220.81
2023-03-18T22:59:51.089Z,101216.50
2023-03-18T23:03:52.869Z,101213.84
2023-03-18T23:12:23.893Z,101216.91
2023-03-18T23:16:26.298Z,101208.03
2023-03-18T23:20:28.102Z,101219.56
2023-03-18T23:24:29.576Z,101216.78
2023-03-18T23:28:33.059Z,101217.69
2023-03-18T23:32:37.041Z,101224.81
2023-03-18T23:36:38.737Z,101218.41
2023-03-18T23:40:40.266Z,101224.00
2023-03-18T23:44:42.857Z,101221.06
2023-03-18T23:48:44.265Z,101219.28
2023-03-18T23:52:45.850Z,101230.91
2023-03-18T23:56:48.802Z,101218.56
